Time;durP1;ratioP1;P1;durP2;ratioP2;P2;SDS_P1;SDS_P2;PMS_P1;PMS_P2;Temp;Humidity;BMP_temperature;BMP_pressure;BME280_temperature;BME280_humidity;BME280_pressure;Samples;Min_cycle;Max_cycle;Signal;HPM_P1;HPM_P2
2022/03/15 00:00:32;;;;;;;155.57;42.30;;;;;;;;;;5075381;28;20602;-58
2022/03/15 00:03:08;;;;;;;142.03;39.60;;;;;;;;;;5074979;28;20235;-59
2022/03/15 00:05:35;;;;;;;816.27;485.70;;;;;;;;;;5075273;28;20203;-58
2022/03/15 00:08:03;;;;;;;357.97;218.50;;;;;;;;;;5075275;28;20302;-58
2022/03/15 00:10:30;;;;;;;225.30;77.33;;;;;;;;;;5075134;28;20607;-58
2022/03/15 00:12:58;;;;;;;128.80;43.57;;;;;;;;;;5075236;28;20203;-58
2022/03/15 00:15:26;;;;;;;103.67;36.27;;;;;;;;;;5075622;28;20583;-58
2022/03/15 00:17:53;;;;;;;84.03;33.93;;;;;;;;;;5075205;28;20208;-59
2022/03/15 00:20:23;;;;;;;61.40;27.47;;;;;;;;;;5075133;28;20286;-58
2022/03/15 00:22:55;;;;;;;76.90;30.87;;;;;;;;;;5075167;28;20237;-59
2022/03/15 00:25:22;;;;;;;68.30;28.57;;;;;;;;;;5075404;28;20221;-58
2022/03/15 00:27:54;;;;;;;109.13;55.03;;;;;;;;;;5075075;28;20310;-58
2022/03/15 00:30:22;;;;;;;198.03;56.03;;;;;;;;;;5075022;28;20227;-58
2022/03/15 00:32:51;;;;;;;116.30;35.90;;;;;;;;;;5075136;28;20207;-58
2022/03/15 00:35:19;;;;;;;88.40;32.10;;;;;;;;;;5075079;28;20286;-59
2022/03/15 00:37:54;;;;;;;103.40;35.37;;;;;;;;;;5075261;28;20231;-58
2022/03/15 00:40:23;;;;;;;98.73;35.17;;;;;;;;;;5075140;28;20264;-58
2022/03/15 00:42:52;;;;;;;70.83;28.23;;;;;;;;;;5074725;28;20676;-58
2022/03/15 00:45:27;;;;;;;62.70;27.27;;;;;;;;;;5057321;28;20625;-58
2022/03/15 00:47:57;;;;;;;137.83;73.73;;;;;;;;;;5057375;28;20559;-59
2022/03/15 00:50:29;;;;;;;122.83;55.30;;;;;;;;;;5024087;28;20223;-58
2022/03/15 00:52:57;;;;;;;187.60;47.40;;;;;;;;;;5057132;28;20238;-59
2022/03/15 00:55:24;;;;;;;186.80;47.57;;;;;;;;;;5074795;28;20223;-59
2022/03/15 00:57:51;;;;;;;218.50;53.53;;;;;;;;;;5074885;28;20588;-58
2022/03/15 01:00:19;;;;;;;259.53;57.87;;;;;;;;;;5074615;28;20203;-59
2022/03/15 01:02:46;;;;;;;161.23;45.07;;;;;;;;;;5057134;28;20685;-58
2022/03/15 01:05:13;;;;;;;233.67;53.80;;;;;;;;;;5056928;28;20290;-58
2022/03/15 01:07:40;;;;;;;180.83;46.27;;;;;;;;;;5057337;28;20340;-58
2022/03/15 01:10:08;;;;;;;1256.03;592.40;;;;;;;;;;5074469;28;20261;-58
2022/03/15 01:12:35;;;;;;;298.37;110.83;;;;;;;;;;5057040;28;20211;-58
2022/03/15 01:15:06;;;;;;;206.10;58.27;;;;;;;;;;5077676;28;20234;-59
2022/03/15 01:17:35;;;;;;;209.53;53.73;;;;;;;;;;5078947;28;20210;-58
2022/03/15 01:20:07;;;;;;;211.17;52.33;;;;;;;;;;5078855;28;20626;-58
2022/03/15 01:22:36;;;;;;;110.17;35.13;;;;;;;;;;5078641;28;20234;-58
2022/03/15 01:25:06;;;;;;;136.00;40.17;;;;;;;;;;5078323;28;20211;-58
2022/03/15 01:27:36;;;;;;;107.53;34.47;;;;;;;;;;5078678;28;20242;-58
2022/03/15 01:30:06;;;;;;;1697.77;824.77;;;;;;;;;;5078614;28;20215;-58
2022/03/15 01:32:34;;;;;;;409.57;200.67;;;;;;;;;;5078352;28;20203;-58
2022/03/15 01:35:01;;;;;;;195.47;64.77;;;;;;;;;;5078623;28;20211;-58
2022/03/15 01:37:29;;;;;;;144.30;50.37;;;;;;;;;;5060994;28;20560;-58
2022/03/15 01:39:57;;;;;;;90.73;38.17;;;;;;;;;;5060847;28;20290;-58
2022/03/15 01:42:24;;;;;;;86.50;36.97;;;;;;;;;;5078732;28;20239;-58
2022/03/15 01:44:51;;;;;;;74.80;32.40;;;;;;;;;;5078360;28;20223;-59
2022/03/15 01:47:19;;;;;;;96.23;36.87;;;;;;;;;;5060475;28;20246;-58
2022/03/15 01:49:46;;;;;;;148.67;46.03;;;;;;;;;;5060711;28;20238;-62
2022/03/15 01:52:15;;;;;;;376.70;181.10;;;;;;;;;;5077836;28;20237;-58
2022/03/15 01:54:44;;;;;;;144.53;51.33;;;;;;;;;;5060807;28;20199;-58
2022/03/15 01:57:13;;;;;;;92.53;35.80;;;;;;;;;;5078055;28;20561;-58
2022/03/15 01:59:41;;;;;;;103.13;35.90;;;;;;;;;;5060346;28;20206;-58
2022/03/15 02:02:10;;;;;;;132.80;41.43;;;;;;;;;;5060070;28;20215;-58
2022/03/15 02:04:38;;;;;;;110.00;37.83;;;;;;;;;;5060408;28;20282;-58
2022/03/15 02:07:10;;;;;;;125.60;39.83;;;;;;;;;;5077487;28;20251;-58
2022/03/15 02:09:39;;;;;;;152.57;46.13;;;;;;;;;;5060972;28;20203;-58
2022/03/15 02:12:09;;;;;;;1264.83;633.57;;;;;;;;;;5077565;28;20227;-58
2022/03/15 02:14:37;;;;;;;471.40;180.83;;;;;;;;;;5077706;28;20253;-58
2022/03/15 02:17:04;;;;;;;234.67;65.13;;;;;;;;;;5077578;28;20231;-58
2022/03/15 02:19:36;;;;;;;134.37;45.07;;;;;;;;;;5077462;28;20203;-58
2022/03/15 02:22:03;;;;;;;77.53;32.50;;;;;;;;;;5060089;28;20497;-58
2022/03/15 02:24:30;;;;;;;120.43;42.03;;;;;;;;;;5077293;28;20536;-58
2022/03/15 02:26:58;;;;;;;83.40;37.13;;;;;;;;;;5077278;28;20235;-58
2022/03/15 02:29:25;;;;;;;224.17;58.90;;;;;;;;;;5077429;28;20303;-58
2022/03/15 02:31:52;;;;;;;135.27;42.37;;;;;;;;;;5060072;28;20652;-59
2022/03/15 02:34:25;;;;;;;1938.13;875.03;;;;;;;;;;5077143;28;20257;-58
2022/03/15 02:36:52;;;;;;;260.73;128.43;;;;;;;;;;5077021;28;20278;-59
2022/03/15 02:39:19;;;;;;;130.93;53.30;;;;;;;;;;5077146;28;20205;-58
2022/03/15 02:41:47;;;;;;;119.87;44.47;;;;;;;;;;5077254;28;20588;-58
2022/03/15 02:44:14;;;;;;;86.00;37.30;;;;;;;;;;5059502;28;20199;-58
2022/03/15 02:46:41;;;;;;;76.50;37.10;;;;;;;;;;5076831;28;20256;-58
2022/03/15 02:49:11;;;;;;;64.90;31.87;;;;;;;;;;5076757;28;20255;-58
2022/03/15 02:51:38;;;;;;;75.13;33.47;;;;;;;;;;5077602;28;20207;-58
2022/03/15 02:54:11;;;;;;;90.40;40.93;;;;;;;;;;5076843;28;20687;-59
2022/03/15 02:56:42;;;;;;;277.80;122.07;;;;;;;;;;5076672;28;20681;-58
2022/03/15 02:59:14;;;;;;;163.10;60.07;;;;;;;;;;5076728;28;20209;-58
2022/03/15 03:01:45;;;;;;;155.40;50.70;;;;;;;;;;5059660;28;20235;-58
2022/03/15 03:04:18;;;;;;;81.30;33.40;;;;;;;;;;5076520;28;20338;-58
2022/03/15 03:06:46;;;;;;;93.40;37.33;;;;;;;;;;5077033;28;20677;-58
2022/03/15 03:09:14;;;;;;;105.63;39.90;;;;;;;;;;5076381;28;20227;-58
2022/03/15 03:11:42;;;;;;;80.93;34.07;;;;;;;;;;5076614;28;20286;-58
2022/03/15 03:14:12;;;;;;;108.27;39.57;;;;;;;;;;5076615;28;20557;-58
2022/03/15 03:16:40;;;;;;;277.20;109.07;;;;;;;;;;5076450;28;20260;-58
2022/03/15 03:19:08;;;;;;;343.43;76.77;;;;;;;;;;5076363;28;20215;-59
2022/03/15 03:21:36;;;;;;;135.53;41.30;;;;;;;;;;5076405;28;20595;-58
2022/03/15 03:24:07;;;;;;;88.40;35.43;;;;;;;;;;5076417;28;20584;-58
2022/03/15 03:26:37;;;;;;;91.30;35.20;;;;;;;;;;5076507;28;20227;-58
2022/03/15 03:29:10;;;;;;;103.73;39.10;;;;;;;;;;5076423;28;20314;-58
2022/03/15 03:31:42;;;;;;;133.57;51.10;;;;;;;;;;5076164;28;20214;-59
2022/03/15 03:34:11;;;;;;;242.23;82.23;;;;;;;;;;5076171;28;20227;-58
2022/03/15 03:36:39;;;;;;;387.80;155.93;;;;;;;;;;5075470;28;20234;-59
2022/03/15 03:39:26;;;;;;;224.17;69.00;;;;;;;;;;5075941;28;20652;-58
2022/03/15 03:41:54;;;;;;;108.57;42.33;;;;;;;;;;5076070;28;20232;-58
2022/03/15 03:44:21;;;;;;;93.87;39.17;;;;;;;;;;5075982;28;20203;-59
2022/03/15 03:46:48;;;;;;;69.97;33.20;;;;;;;;;;5075961;28;20279;-58
2022/03/15 03:49:16;;;;;;;68.90;34.60;;;;;;;;;;5076038;28;20569;-58
2022/03/15 03:51:43;;;;;;;77.93;36.57;;;;;;;;;;5075564;28;20223;-58
2022/03/15 03:54:10;;;;;;;58.10;29.40;;;;;;;;;;5075983;28;20231;-58
2022/03/15 03:56:37;;;;;;;64.50;31.13;;;;;;;;;;5075447;28;20207;-58
2022/03/15 03:59:05;;;;;;;53.77;29.50;;;;;;;;;;5075568;28;20264;-58
2022/03/15 04:01:32;;;;;;;59.97;30.60;;;;;;;;;;5075540;28;20249;-59
2022/03/15 04:04:06;;;;;;;58.43;30.53;;;;;;;;;;5075129;28;20681;-58
2022/03/15 04:06:33;;;;;;;52.37;29.07;;;;;;;;;;5075746;28;20633;-58
2022/03/15 04:09:01;;;;;;;55.10;29.17;;;;;;;;;;5057934;28;20306;-58
2022/03/15 04:11:31;;;;;;;58.60;29.40;;;;;;;;;;5075330;28;20251;-58
2022/03/15 04:13:59;;;;;;;60.40;28.53;;;;;;;;;;5075006;28;20218;-58
2022/03/15 04:16:28;;;;;;;66.43;31.03;;;;;;;;;;5074864;28;20199;-59
2022/03/15 04:18:56;;;;;;;277.93;94.60;;;;;;;;;;5057555;28;20211;-58
2022/03/15 04:21:24;;;;;;;311.67;74.30;;;;;;;;;;5074804;28;20688;-58
2022/03/15 04:23:55;;;;;;;204.13;55.63;;;;;;;;;;5075008;28;20199;-58
2022/03/15 04:26:24;;;;;;;120.53;39.53;;;;;;;;;;5057659;28;20213;-59
2022/03/15 04:28:52;;;;;;;139.50;45.90;;;;;;;;;;5074578;28;20326;-58
2022/03/15 04:31:20;;;;;;;101.40;39.70;;;;;;;;;;5071621;28;20219;-59
2022/03/15 04:33:47;;;;;;;107.90;39.67;;;;;;;;;;5060680;28;20208;-59
2022/03/15 04:36:15;;;;;;;300.30;92.03;;;;;;;;;;5059277;28;20241;-59
2022/03/15 04:38:42;;;;;;;477.63;220.53;;;;;;;;;;5066462;28;20630;-59
2022/03/15 04:41:11;;;;;;;206.23;77.00;;;;;;;;;;5065087;28;20302;-60
2022/03/15 04:43:38;;;;;;;91.23;40.30;;;;;;;;;;5056079;28;20669;-58
2022/03/15 04:46:06;;;;;;;142.67;47.67;;;;;;;;;;5073047;28;20195;-61
2022/03/15 04:48:34;;;;;;;80.73;35.63;;;;;;;;;;5073093;28;20243;-59
2022/03/15 04:51:05;;;;;;;79.03;36.80;;;;;;;;;;5064387;28;20200;-59
2022/03/15 04:53:33;;;;;;;94.87;38.60;;;;;;;;;;5068169;28;20199;-59
2022/03/15 04:56:00;;;;;;;129.83;47.33;;;;;;;;;;5054907;28;20231;-58
2022/03/15 04:58:27;;;;;;;549.40;251.90;;;;;;;;;;5065903;28;20309;-58
2022/03/15 05:00:54;;;;;;;251.17;100.13;;;;;;;;;;5068383;28;20223;-59
2022/03/15 05:03:22;;;;;;;192.07;58.77;;;;;;;;;;5034383;28;20228;-59
2022/03/15 05:05:49;;;;;;;123.00;42.47;;;;;;;;;;5064261;28;20670;-59
2022/03/15 05:08:16;;;;;;;75.77;35.10;;;;;;;;;;5063805;28;20256;-59
2022/03/15 05:13:29;;;;;;;58.97;29.13;;;;;;;;;;5070125;28;20222;-59
2022/03/15 05:15:56;;;;;;;235.53;118.30;;;;;;;;;;5063493;28;20251;-59
2022/03/15 05:18:23;;;;;;;61.80;34.50;;;;;;;;;;5061188;28;20311;-59
2022/03/15 05:20:50;;;;;;;69.93;33.13;;;;;;;;;;5069811;28;20321;-60
2022/03/15 05:23:17;;;;;;;60.30;31.00;;;;;;;;;;5065121;28;20705;-59
2022/03/15 05:25:44;;;;;;;64.90;31.57;;;;;;;;;;5051975;28;20285;-59
2022/03/15 05:28:12;;;;;;;56.97;30.90;;;;;;;;;;5058769;28;20244;-59
2022/03/15 05:30:39;;;;;;;57.10;30.27;;;;;;;;;;5061949;28;20227;-59
2022/03/15 05:33:06;;;;;;;63.20;31.33;;;;;;;;;;5073620;28;20223;-60
2022/03/15 05:35:35;;;;;;;66.20;31.63;;;;;;;;;;5072894;28;20257;-61
2022/03/15 05:38:02;;;;;;;98.23;49.53;;;;;;;;;;5056250;28;20229;-60
2022/03/15 05:40:31;;;;;;;76.40;44.07;;;;;;;;;;5060528;28;20318;-57
2022/03/15 05:42:58;;;;;;;78.53;33.67;;;;;;;;;;5073324;28;20230;-61
2022/03/15 05:45:25;;;;;;;68.00;31.17;;;;;;;;;;5073251;28;20296;-59
2022/03/15 05:47:54;;;;;;;62.90;31.80;;;;;;;;;;5072997;28;20254;-59
2022/03/15 05:50:21;;;;;;;71.50;34.73;;;;;;;;;;5073193;28;20246;-56
2022/03/15 05:52:48;;;;;;;64.60;31.93;;;;;;;;;;5073479;28;20247;-60
2022/03/15 05:55:16;;;;;;;63.67;32.53;;;;;;;;;;5072597;28;20251;-59
2022/03/15 05:57:43;;;;;;;69.43;34.13;;;;;;;;;;5073369;28;20223;-59
2022/03/15 06:00:11;;;;;;;222.73;121.23;;;;;;;;;;5074436;28;20326;-59
2022/03/15 06:02:41;;;;;;;85.53;49.17;;;;;;;;;;5076860;28;20289;-60
2022/03/15 06:05:10;;;;;;;64.17;32.33;;;;;;;;;;5077231;28;20294;-60
2022/03/15 06:07:48;;;;;;;57.70;30.70;;;;;;;;;;5076813;28;20231;-59
2022/03/15 06:10:19;;;;;;;61.60;30.57;;;;;;;;;;5076289;28;20556;-61
2022/03/15 06:12:46;;;;;;;61.53;31.33;;;;;;;;;;5076979;28;20254;-59
2022/03/15 06:15:15;;;;;;;60.23;32.27;;;;;;;;;;5076371;28;20231;-60
2022/03/15 06:17:48;;;;;;;59.33;30.03;;;;;;;;;;5076925;28;20258;-61
2022/03/15 06:20:17;;;;;;;61.23;32.53;;;;;;;;;;5076837;28;20229;-61
2022/03/15 06:22:46;;;;;;;65.57;33.77;;;;;;;;;;5076849;28;20254;-60
2022/03/15 06:25:18;;;;;;;62.33;33.40;;;;;;;;;;5042933;28;20613;-61
2022/03/15 06:27:48;;;;;;;181.23;91.53;;;;;;;;;;5076482;28;20631;-60
2022/03/15 06:30:16;;;;;;;95.93;43.23;;;;;;;;;;5064289;28;20596;-60
2022/03/15 06:32:43;;;;;;;66.73;34.30;;;;;;;;;;5055969;28;20682;-60
2022/03/15 06:35:12;;;;;;;76.37;37.63;;;;;;;;;;5056236;28;20251;-60
2022/03/15 06:37:47;;;;;;;100.80;44.60;;;;;;;;;;5056055;28;20239;-61
2022/03/15 06:40:24;;;;;;;76.83;36.43;;;;;;;;;;5055785;28;20595;-60
2022/03/15 06:42:52;;;;;;;74.67;35.57;;;;;;;;;;5056048;28;20220;-61
2022/03/15 06:45:20;;;;;;;111.03;57.27;;;;;;;;;;5055896;28;20805;-60
2022/03/15 06:47:47;;;;;;;109.20;49.90;;;;;;;;;;5056055;28;20224;-60
2022/03/15 06:50:14;;;;;;;150.17;60.63;;;;;;;;;;5056245;28;20240;-60
2022/03/15 06:52:44;;;;;;;141.53;57.23;;;;;;;;;;5055782;28;20702;-60
2022/03/15 06:55:12;;;;;;;76.93;38.90;;;;;;;;;;5055375;28;20215;-61
2022/03/15 06:57:39;;;;;;;122.87;51.40;;;;;;;;;;5074766;28;20219;-62
2022/03/15 07:00:09;;;;;;;71.07;37.63;;;;;;;;;;5087563;28;20245;-61
2022/03/15 07:02:36;;;;;;;124.67;66.93;;;;;;;;;;5095520;28;20253;-62
2022/03/15 07:05:04;;;;;;;82.77;43.80;;;;;;;;;;5096206;28;20222;-61
2022/03/15 07:07:31;;;;;;;122.87;55.53;;;;;;;;;;5095936;28;20296;-58
2022/03/15 07:10:01;;;;;;;92.07;45.43;;;;;;;;;;5095366;28;20234;-61
2022/03/15 07:12:29;;;;;;;86.10;42.87;;;;;;;;;;5094461;28;20226;-60
2022/03/15 07:14:57;;;;;;;101.87;47.53;;;;;;;;;;5095500;28;20246;-60
2022/03/15 07:17:24;;;;;;;74.17;38.57;;;;;;;;;;5096016;28;20292;-60
2022/03/15 07:19:51;;;;;;;73.20;38.50;;;;;;;;;;5095674;28;20238;-59
2022/03/15 07:22:18;;;;;;;77.33;39.80;;;;;;;;;;5095796;28;20250;-60
2022/03/15 07:24:45;;;;;;;146.30;73.80;;;;;;;;;;5095403;28;20222;-59
2022/03/15 07:27:12;;;;;;;73.67;37.10;;;;;;;;;;5078148;28;20222;-60
2022/03/15 07:29:39;;;;;;;65.53;36.03;;;;;;;;;;5095542;28;20234;-61
2022/03/15 07:32:07;;;;;;;72.60;38.53;;;;;;;;;;5095485;28;20291;-60
2022/03/15 07:34:34;;;;;;;66.27;35.43;;;;;;;;;;5095426;28;20230;-61
2022/03/15 07:37:01;;;;;;;75.10;39.10;;;;;;;;;;5088501;28;20281;-61
2022/03/15 07:39:29;;;;;;;73.43;40.07;;;;;;;;;;5073919;28;20607;-59
2022/03/15 07:41:57;;;;;;;82.03;44.53;;;;;;;;;;5073769;28;20242;-60
2022/03/15 07:44:24;;;;;;;90.17;52.73;;;;;;;;;;5075121;28;20250;-59
2022/03/15 07:46:51;;;;;;;65.17;38.00;;;;;;;;;;5074526;28;20609;-60
2022/03/15 07:49:20;;;;;;;79.97;40.33;;;;;;;;;;5074965;28;20579;-60
2022/03/15 07:51:50;;;;;;;73.37;40.60;;;;;;;;;;5057670;28;20219;-60
2022/03/15 07:54:17;;;;;;;72.03;39.47;;;;;;;;;;5074572;28;20219;-60
2022/03/15 07:56:46;;;;;;;60.93;35.03;;;;;;;;;;5074752;28;20224;-62
2022/03/15 07:59:13;;;;;;;56.47;34.60;;;;;;;;;;5066977;28;20294;-60
2022/03/15 08:01:40;;;;;;;62.07;33.63;;;;;;;;;;5066270;28;20235;-62
2022/03/15 08:04:07;;;;;;;60.93;34.40;;;;;;;;;;5063964;28;20236;-60
2022/03/15 08:06:35;;;;;;;69.23;41.33;;;;;;;;;;5069823;28;20278;-61
2022/03/15 08:09:03;;;;;;;68.43;36.03;;;;;;;;;;5074379;28;20223;-61
2022/03/15 08:11:30;;;;;;;71.37;35.97;;;;;;;;;;5074046;28;20290;-61
2022/03/15 08:13:58;;;;;;;62.77;32.63;;;;;;;;;;5073405;28;20223;-61
2022/03/15 08:16:26;;;;;;;68.63;36.70;;;;;;;;;;5074991;28;20231;-60
2022/03/15 08:18:53;;;;;;;56.60;32.13;;;;;;;;;;5075423;28;20231;-60
2022/03/15 08:21:22;;;;;;;58.97;32.77;;;;;;;;;;5075497;28;20234;-60
2022/03/15 08:23:49;;;;;;;66.80;34.27;;;;;;;;;;5074963;28;20229;-60
2022/03/15 08:26:17;;;;;;;104.60;66.87;;;;;;;;;;5075461;28;20214;-61
2022/03/15 08:28:47;;;;;;;78.60;39.10;;;;;;;;;;5075290;28;20254;-60
2022/03/15 08:31:14;;;;;;;66.40;32.30;;;;;;;;;;5074929;28;20218;-61
2022/03/15 08:33:44;;;;;;;59.63;31.47;;;;;;;;;;5074905;28;20638;-60
2022/03/15 08:36:13;;;;;;;56.10;32.00;;;;;;;;;;5075428;28;20566;-60
2022/03/15 08:38:41;;;;;;;55.60;30.57;;;;;;;;;;5074939;28;20231;-61
2022/03/15 08:41:08;;;;;;;62.13;30.90;;;;;;;;;;5075322;28;20211;-60
2022/03/15 08:43:36;;;;;;;61.03;31.50;;;;;;;;;;5075133;28;20206;-60
2022/03/15 08:46:03;;;;;;;65.23;32.63;;;;;;;;;;5075081;28;20580;-60
2022/03/15 08:48:31;;;;;;;81.67;37.23;;;;;;;;;;5074771;28;20203;-60
2022/03/15 08:51:02;;;;;;;69.40;32.97;;;;;;;;;;5074928;28;20237;-60
2022/03/15 08:53:32;;;;;;;60.50;32.77;;;;;;;;;;5074962;28;20480;-60
2022/03/15 08:56:00;;;;;;;62.50;33.50;;;;;;;;;;5074701;28;20207;-60
2022/03/15 08:58:27;;;;;;;66.55;34.38;;;;;;;;;;5074579;28;20667;-60
2022/03/15 09:00:54;;;;;;;59.42;33.83;;;;;;;;;;5074722;28;20227;-60
2022/03/15 09:03:22;;;;;;;61.80;34.38;;;;;;;;;;5074879;28;20231;-60
2022/03/15 09:05:50;;;;;;;64.85;33.72;;;;;;;;;;5075612;28;20230;-60
2022/03/15 09:08:18;;;;;;;124.18;90.72;;;;;;;;;;5057295;28;20239;-60
2022/03/15 09:10:47;;;;;;;68.78;34.78;;;;;;;;;;5074506;28;20227;-60
2022/03/15 09:13:15;;;;;;;63.72;33.15;;;;;;;;;;5074590;28;20238;-60
2022/03/15 09:15:42;;;;;;;68.87;35.53;;;;;;;;;;5074507;28;20664;-60
2022/03/15 09:18:10;;;;;;;59.72;33.70;;;;;;;;;;5074568;28;20207;-60
2022/03/15 09:20:37;;;;;;;65.22;35.28;;;;;;;;;;5074725;28;20594;-60
2022/03/15 09:23:06;;;;;;;62.17;35.38;;;;;;;;;;5075175;28;20199;-60
2022/03/15 09:25:36;;;;;;;77.00;39.13;;;;;;;;;;5075025;28;20187;-60
2022/03/15 09:28:04;;;;;;;70.55;37.60;;;;;;;;;;5074299;28;20284;-60
2022/03/15 09:30:32;;;;;;;118.97;49.47;;;;;;;;;;5074552;28;20289;-60
2022/03/15 09:33:00;;;;;;;98.83;41.43;;;;;;;;;;5074329;28;20234;-60
2022/03/15 09:35:27;;;;;;;98.70;43.72;;;;;;;;;;5076712;28;20596;-60
2022/03/15 09:37:54;;;;;;;64.83;35.97;;;;;;;;;;5078269;28;20203;-60
2022/03/15 09:40:25;;;;;;;69.05;34.90;;;;;;;;;;5078452;28;20207;-60
2022/03/15 09:43:11;;;;;;;66.68;35.17;;;;;;;;;;5078418;28;20295;-60
2022/03/15 09:45:38;;;;;;;58.90;33.97;;;;;;;;;;5060818;28;20198;-60
2022/03/15 09:48:15;;;;;;;114.05;71.00;;;;;;;;;;5078258;28;20596;-60
2022/03/15 09:50:47;;;;;;;64.07;36.05;;;;;;;;;;5061478;28;20219;-60
2022/03/15 09:53:15;;;;;;;66.28;34.38;;;;;;;;;;5078092;28;20223;-60
2022/03/15 09:55:45;;;;;;;64.85;34.25;;;;;;;;;;5078125;28;20230;-60
2022/03/15 09:58:20;;;;;;;60.28;34.95;;;;;;;;;;5077977;28;20210;-60
2022/03/15 10:00:53;;;;;;;56.75;32.20;;;;;;;;;;5078268;28;20575;-60
2022/03/15 10:03:20;;;;;;;58.58;33.58;;;;;;;;;;5043767;28;20227;-60
2022/03/15 10:05:49;;;;;;;63.47;33.13;;;;;;;;;;5078171;28;20227;-60
2022/03/15 10:08:17;;;;;;;65.75;33.72;;;;;;;;;;5078063;28;20225;-60
2022/03/15 10:10:50;;;;;;;66.70;37.92;;;;;;;;;;5077583;28;20223;-60
2022/03/15 10:13:19;;;;;;;76.38;37.42;;;;;;;;;;5078188;28;20203;-60
2022/03/15 10:15:55;;;;;;;67.00;35.78;;;;;;;;;;5077688;28;20282;-60
2022/03/15 10:18:24;;;;;;;67.68;33.38;;;;;;;;;;5077782;28;20245;-60
2022/03/15 10:20:52;;;;;;;62.00;33.13;;;;;;;;;;5077578;28;20668;-60
2022/03/15 10:23:24;;;;;;;61.55;35.30;;;;;;;;;;5077674;28;20223;-60
2022/03/15 10:25:53;;;;;;;55.67;32.80;;;;;;;;;;5077411;28;20195;-60
2022/03/15 10:28:20;;;;;;;53.90;31.95;;;;;;;;;;5077349;28;20223;-60
2022/03/15 10:30:47;;;;;;;297.20;191.13;;;;;;;;;;5077351;28;20730;-60
2022/03/15 10:33:16;;;;;;;90.97;53.00;;;;;;;;;;5077412;28;20202;-61
2022/03/15 10:35:48;;;;;;;67.68;35.58;;;;;;;;;;5077141;28;20511;-60
2022/03/15 10:38:17;;;;;;;77.32;37.90;;;;;;;;;;5077366;28;20211;-60
2022/03/15 10:40:47;;;;;;;53.15;32.75;;;;;;;;;;5077057;28;20206;-60
2022/03/15 10:43:23;;;;;;;53.83;32.67;;;;;;;;;;5074451;28;20224;-61
2022/03/15 10:45:57;;;;;;;59.13;32.85;;;;;;;;;;5054923;28;20258;-60
2022/03/15 10:48:30;;;;;;;53.67;32.30;;;;;;;;;;5062758;28;20553;-61
2022/03/15 10:51:00;;;;;;;63.92;34.53;;;;;;;;;;5072847;28;20250;-61
2022/03/15 10:53:36;;;;;;;169.93;94.03;;;;;;;;;;5074343;28;20215;-63
2022/03/15 10:56:14;;;;;;;67.10;34.10;;;;;;;;;;5075188;28;20254;-60
2022/03/15 10:58:48;;;;;;;51.15;30.65;;;;;;;;;;5074771;28;20658;-60
2022/03/15 11:01:17;;;;;;;61.10;31.23;;;;;;;;;;5074354;28;20261;-60
2022/03/15 11:04:02;;;;;;;61.13;31.77;;;;;;;;;;5072286;28;20654;-61
2022/03/15 11:06:40;;;;;;;55.28;30.67;;;;;;;;;;5075780;28;20617;-60
2022/03/15 11:09:24;;;;;;;52.00;30.20;;;;;;;;;;5076426;28;20239;-60
2022/03/15 11:12:05;;;;;;;50.22;26.60;;;;;;;;;;5075765;28;20255;-60
2022/03/15 11:14:41;;;;;;;137.35;73.60;;;;;;;;;;5075649;28;20310;-61
2022/03/15 11:17:12;;;;;;;66.47;33.22;;;;;;;;;;5075250;28;20238;-60
2022/03/15 11:19:47;;;;;;;60.00;29.58;;;;;;;;;;5075813;28;20292;-61
2022/03/15 11:22:16;;;;;;;52.70;28.02;;;;;;;;;;5076007;28;20595;-61
2022/03/15 11:24:45;;;;;;;46.15;25.23;;;;;;;;;;5075298;28;20227;-60
2022/03/15 11:27:16;;;;;;;61.58;29.42;;;;;;;;;;5058452;28;20231;-60
2022/03/15 11:29:47;;;;;;;43.22;27.42;;;;;;;;;;5075017;28;20678;-64
2022/03/15 11:32:14;;;;;;;58.40;30.38;;;;;;;;;;5075260;28;20727;-61
2022/03/15 11:34:41;;;;;;;77.28;38.47;;;;;;;;;;5075352;28;20219;-61
2022/03/15 11:37:12;;;;;;;58.80;24.23;;;;;;;;;;5075726;28;20692;-61
2022/03/15 11:39:39;;;;;;;29.95;15.20;;;;;;;;;;5075125;28;20754;-61
2022/03/15 11:42:09;;;;;;;27.67;15.55;;;;;;;;;;5075171;28;20235;-60
2022/03/15 11:44:53;;;;;;;26.42;15.18;;;;;;;;;;5075536;28;20239;-60
2022/03/15 11:47:32;;;;;;;27.83;14.73;;;;;;;;;;5057596;28;20742;-63
2022/03/15 11:50:06;;;;;;;38.45;18.10;;;;;;;;;;5075186;28;20251;-60
2022/03/15 11:52:43;;;;;;;41.20;17.52;;;;;;;;;;5074654;28;20231;-61
2022/03/15 11:55:33;;;;;;;69.53;28.42;;;;;;;;;;5075394;28;20298;-60
2022/03/15 11:58:04;;;;;;;66.45;25.23;;;;;;;;;;5073960;28;20261;-60
2022/03/15 12:00:36;;;;;;;34.22;18.15;;;;;;;;;;5074366;28;20251;-60
2022/03/15 12:03:06;;;;;;;35.53;18.80;;;;;;;;;;5074444;28;20249;-60
2022/03/15 12:06:03;;;;;;;28.63;17.52;;;;;;;;;;5074673;28;20258;-61
2022/03/15 12:08:35;;;;;;;29.38;17.15;;;;;;;;;;4976582;28;20652;-61
2022/03/15 12:11:05;;;;;;;34.10;18.67;;;;;;;;;;4993796;28;20357;-60
2022/03/15 12:13:43;;;;;;;30.40;18.23;;;;;;;;;;4992877;28;20222;-60
2022/03/15 12:16:21;;;;;;;28.67;18.02;;;;;;;;;;4992846;28;20222;-60
2022/03/15 12:19:00;;;;;;;117.07;66.85;;;;;;;;;;4993285;28;20225;-60
2022/03/15 12:21:47;;;;;;;23.58;15.77;;;;;;;;;;4993575;28;20720;-60
2022/03/15 12:24:18;;;;;;;27.75;17.60;;;;;;;;;;4993679;28;20230;-60
2022/03/15 12:26:59;;;;;;;28.17;17.35;;;;;;;;;;4993172;28;20246;-60
2022/03/15 12:29:27;;;;;;;23.25;15.38;;;;;;;;;;4992731;28;20222;-61
2022/03/15 12:31:57;;;;;;;20.77;15.98;;;;;;;;;;4993185;28;20289;-61
2022/03/15 12:34:29;;;;;;;34.00;16.60;;;;;;;;;;4993436;28;20226;-60
2022/03/15 12:36:59;;;;;;;24.85;17.10;;;;;;;;;;4993413;28;20276;-60
2022/03/15 12:39:31;;;;;;;23.20;16.35;;;;;;;;;;4993104;28;20233;-61
2022/03/15 12:42:13;;;;;;;32.13;15.63;;;;;;;;;;4993342;28;20249;-61
2022/03/15 12:45:00;;;;;;;20.00;13.70;;;;;;;;;;5023843;28;20220;-60
2022/03/15 12:47:29;;;;;;;20.88;15.07;;;;;;;;;;5073562;28;20250;-60
2022/03/15 12:50:15;;;;;;;21.25;15.18;;;;;;;;;;5073997;28;20219;-61
2022/03/15 12:52:53;;;;;;;26.20;16.38;;;;;;;;;;5063402;28;20589;-59
2022/03/15 12:55:21;;;;;;;22.52;15.38;;;;;;;;;;5065678;28;20219;-62
2022/03/15 12:57:55;;;;;;;20.67;15.25;;;;;;;;;;5072031;28;20227;-60
2022/03/15 13:00:24;;;;;;;25.63;17.02;;;;;;;;;;5072354;28;20223;-60
2022/03/15 13:02:54;;;;;;;37.63;18.10;;;;;;;;;;5068207;28;20235;-60
2022/03/15 13:05:24;;;;;;;29.35;15.50;;;;;;;;;;5071927;28;20223;-60
2022/03/15 13:07:59;;;;;;;18.10;13.48;;;;;;;;;;5070246;28;20234;-61
2022/03/15 13:10:28;;;;;;;29.17;16.05;;;;;;;;;;5071255;28;20673;-60
2022/03/15 13:12:56;;;;;;;24.10;14.82;;;;;;;;;;5072539;28;20227;-59
2022/03/15 13:15:25;;;;;;;26.60;15.43;;;;;;;;;;5072253;28;20281;-59
2022/03/15 13:17:55;;;;;;;30.13;15.88;;;;;;;;;;5055439;28;20223;-59
2022/03/15 13:20:26;;;;;;;48.55;24.10;;;;;;;;;;5072912;28;20538;-61
2022/03/15 13:23:06;;;;;;;98.82;40.15;;;;;;;;;;5070105;28;20214;-59
2022/03/15 13:25:43;;;;;;;32.92;17.42;;;;;;;;;;5067647;28;20564;-59
2022/03/15 13:28:29;;;;;;;20.90;12.98;;;;;;;;;;5069582;28;20695;-59
2022/03/15 13:31:04;;;;;;;24.02;12.80;;;;;;;;;;5067944;28;20609;-59
2022/03/15 13:33:38;;;;;;;11.77;8.98;;;;;;;;;;5048579;28;20284;-59
2022/03/15 13:36:12;;;;;;;12.48;9.32;;;;;;;;;;5073030;28;20218;-57
2022/03/15 13:38:53;;;;;;;23.60;12.80;;;;;;;;;;5069722;28;20222;-59
2022/03/15 13:41:33;;;;;;;115.85;70.15;;;;;;;;;;5070588;28;20753;-59
2022/03/15 13:44:01;;;;;;;35.45;17.42;;;;;;;;;;5071295;28;20218;-56
2022/03/15 13:46:34;;;;;;;29.02;15.60;;;;;;;;;;5068326;28;20245;-58
2022/03/15 13:49:20;;;;;;;22.40;12.77;;;;;;;;;;5069227;28;20249;-59
2022/03/15 13:51:50;;;;;;;20.83;12.50;;;;;;;;;;5070642;28;20238;-59
2022/03/15 13:54:21;;;;;;;15.70;11.45;;;;;;;;;;5052165;28;20219;-58
2022/03/15 13:56:52;;;;;;;18.83;13.20;;;;;;;;;;5071857;28;20211;-60
2022/03/15 13:59:21;;;;;;;17.00;12.35;;;;;;;;;;5071249;28;20222;-60
2022/03/15 14:01:58;;;;;;;19.60;12.95;;;;;;;;;;5071660;28;20223;-59
2022/03/15 14:04:31;;;;;;;29.92;20.02;;;;;;;;;;5072414;28;20262;-61
2022/03/15 14:07:04;;;;;;;16.38;12.10;;;;;;;;;;5073157;28;20228;-59
2022/03/15 14:09:34;;;;;;;17.88;12.80;;;;;;;;;;5072959;28;20227;-58
2022/03/15 14:12:17;;;;;;;16.38;11.57;;;;;;;;;;5078554;28;20223;-60
2022/03/15 14:14:51;;;;;;;27.10;17.70;;;;;;;;;;5092868;28;20271;-59
2022/03/15 14:17:24;;;;;;;28.67;17.17;;;;;;;;;;5087495;28;20229;-61
2022/03/15 14:19:55;;;;;;;46.55;24.05;;;;;;;;;;5063581;28;20255;-61
2022/03/15 14:22:26;;;;;;;58.08;39.63;;;;;;;;;;5076939;28;20676;-61
2022/03/15 14:25:04;;;;;;;18.92;13.35;;;;;;;;;;5075544;28;20247;-59
2022/03/15 14:27:40;;;;;;;35.25;21.65;;;;;;;;;;5075803;28;20325;-59
2022/03/15 14:30:08;;;;;;;19.25;12.68;;;;;;;;;;5073559;28;20653;-59
2022/03/15 14:32:35;;;;;;;19.00;13.25;;;;;;;;;;5075258;28;20226;-59